Weather observations for the past three days for
Preston, Fillmore County Airport
Imperial (Metric)
Date Time (cdt) Wind (mph) Vis. (mi.) Weather Sky Cond. Temperature (ºF) Relative Humidity Wind Chill (°F) Heat Index (°F) Pressure Precipitation (in)
Air Dwpt 6 hour altimeter (in) sea level (mb) 1 hr 3 hr 6 hr
Max. Min.
04 18:35 NW 23 G 32 10.00 Fair and Breezy CLR 57.2 28.4 33% 29.59 0.0
04 18:15 W 26 G 32 10.00 Fair and Windy CLR 59 28.4 31% 29.58 0.0
04 17:55 NW 22 G 32 10.00 Fair and Breezy CLR 60.8 28.4 29% 29.57 0.0
04 17:35 NW 22 G 29 10.00 Fair and Breezy CLR 60.8 28.4 29% 29.57 0.0
04 17:15 NW 24 G 33 10.00 Fair and Breezy CLR 60.8 26.6 27% 29.55 0.0
04 16:55 W 25 G 35 10.00 Fair and Breezy CLR 62.6 26.6 25% 29.55 0.0
04 16:35 NW 25 G 33 10.00 Fair and Breezy CLR 62.6 26.6 25% 29.54 0.0
04 16:15 W 26 G 32 10.00 Fair and Windy CLR 62.6 24.8 24% 29.54 0.0
04 15:55 NW 28 G 35 10.00 Fair and Windy CLR 62.6 26.6 25% 29.53 0.0
04 15:35 W 29 10.00 Fair and Windy CLR 62.6 26.6 25% 29.54 0.0
04 15:15 NW 22 G 35 10.00 Fair and Breezy CLR 64.4 30.2 28% 29.54 0.0
04 14:55 NW 26 G 38 10.00 Fair and Windy CLR 66.2 28.4 24% 29.53 0.0
04 14:35 NW 29 G 41 8.00 Fair and Windy CLR 68 28.4 23% 29.52 0.0
04 14:15 NW 30 G 37 3.00 Fair with Haze and Windy CLR 68 30.2 24% 29.51 0.0
04 13:55 NW 23 G 32 5.00 Unknown Precip Haze and Breezy CLR 68 32 26% 29.5 0.0
04 13:35 NW 25 G 33 3.00 Light Rain Haze and Breezy CLR 68 33.8 28% 29.5 0.0
04 13:15 W 20 G 31 6.00 Fair with Haze CLR 69.8 35.6 29% 29.49 0.0
04 12:55 W 22 G 29 10.00 Fair and Breezy CLR 69.8 37.4 31% 29.48 0.0
04 12:35 W 17 G 30 10.00 Fair CLR 69.8 39.2 33% 29.49 0.0
04 12:15 W 25 10.00 A Few Clouds and Breezy FEW120 69.8 41 35% 29.49 0.0
04 11:55 W 18 G 25 10.00 A Few Clouds FEW120 68 41 38% 29.5 0.0
04 11:35 W 22 10.00 A Few Clouds and Breezy FEW120 68 42.8 40% 29.49 0.0
04 11:15 W 23 10.00 Fair and Breezy CLR 68 41 38% 29.48 0.0
04 10:55 W 20 G 28 10.00 Fair CLR 68 39.2 35% 29.48 0.0
04 10:35 NW 22 G 32 10.00 Fair and Breezy CLR 69.8 39.2 33% 29.48 0.0
04 10:15 W 26 G 35 10.00 Fair and Windy CLR 69.8 39.2 33% 29.48 0.0
04 09:55 W 24 G 41 8.00 Fair and Breezy CLR 68 37.4 33% 29.48 0.0
04 09:35 W 20 G 29 10.00 A Few Clouds FEW095 68 39.2 35% 29.48 0.0
04 09:15 SW 18 G 25 10.00 Partly Cloudy SCT095 64.4 39.2 40% 29.48 0.0
04 08:55 SW 18 G 28 10.00 A Few Clouds FEW100 62.6 37.4 39% 29.47 0.0
04 08:35 SW 17 G 26 10.00 Fair CLR 62.6 37.4 39% 29.48 0.0
04 08:15 SW 18 10.00 Fair CLR 59 37.4 45% 29.48 0.0
04 07:55 SW 13 G 20 10.00 Fair CLR 57.2 35.6 44% 29.49 0.0
04 07:35 SW 16 G 23 10.00 Fair CLR 55.4 35.6 47% 29.49 0.0
04 07:15 SW 14 G 22 10.00 Fair CLR 55.4 33.8 44% 29.5 0.0
04 06:55 SW 13 10.00 Fair CLR 53.6 33.8 47% 29.5 0.0
04 06:35 SW 14 G 20 10.00 Fair CLR 51.8 33.8 50% 29.5 0.0
04 06:15 SW 13 10.00 Fair CLR 51.8 32 47% 29.51 0.0
04 05:55 SW 12 G 17 10.00 Fair CLR 51.8 32 47% 29.51 0.0
04 05:35 SW 12 10.00 Fair CLR 51.8 32 47% 29.52 0.0
04 05:15 SW 12 10.00 Fair CLR 51.8 32 47% 29.52 0.0
04 04:55 SW 12 10.00 Fair CLR 50 32 50% 46 29.53 0.0
04 04:35 SW 10 10.00 Fair CLR 50 32 50% 46 29.54 0.0
04 04:15 SW 10 10.00 Fair CLR 50 32 50% 46 29.54 0.0
04 03:55 SW 12 10.00 Fair CLR 51.8 32 47% 29.56 0.0
04 03:35 SW 10 10.00 Fair CLR 51.8 32 47% 29.57 0.0
04 03:15 SW 12 10.00 Fair CLR 51.8 32 47% 29.57 0.0
04 02:55 SW 12 10.00 Fair CLR 51.8 32 47% 29.58 0.0
04 02:35 SW 13 10.00 Fair CLR 53.6 32 44% 29.59 0.0
04 02:15 SW 12 10.00 Fair CLR 51.8 32 47% 29.59 0.0
04 01:55 SW 9 10.00 Fair CLR 51.8 32 47% 29.6 0.0
04 01:35 SW 9 10.00 Fair CLR 51.8 32 47% 29.61 0.0
04 01:15 SW 8 10.00 Fair CLR 51.8 32 47% 29.62 0.0
04 00:55 SW 9 10.00 Fair CLR 53.6 32 44% 29.63 0.0
04 00:35 SW 9 10.00 Fair CLR 53.6 32 44% 29.64 0.0
04 00:15 SW 8 10.00 Fair CLR 53.6 32 44% 29.64 0.0
03 23:55 SW 8 10.00 Fair CLR 53.6 32 44% 29.65 0.0
03 23:35 SW 7 10.00 Fair CLR 53.6 32 44% 29.66 0.0
03 23:15 SW 7 10.00 Fair CLR 55.4 32 41% 29.66 0.0
03 22:55 SW 8 10.00 Fair CLR 55.4 32 41% 29.68 0.0
03 22:35 W 9 10.00 Fair CLR 55.4 32 41% 29.68 0.0
03 22:15 W 10 10.00 Fair CLR 57.2 30.2 36% 29.69 0.0
03 21:55 W 9 10.00 Fair CLR 59 30.2 34% 29.69 0.0
03 21:35 W 8 10.00 Fair CLR 60.8 30.2 31% 29.69 0.0
03 21:15 W 7 10.00 Fair CLR 60.8 30.2 31% 29.69 0.0
03 20:55 W 8 10.00 Fair CLR 60.8 30.2 31% 29.68 0.0
03 20:35 W 8 10.00 Fair CLR 60.8 30.2 31% 29.68 0.0
03 20:15 W 7 10.00 Fair CLR 64.4 30.2 28% 29.68 0.0
03 19:55 NW 8 10.00 Fair CLR 64.4 30.2 28% 29.68 0.0
03 19:35 NW 10 G 16 10.00 Fair CLR 66.2 28.4 24% 29.68 0.0
03 19:15 NW 14 10.00 Fair CLR 68 28.4 23% 29.68 0.0
03 18:55 NW 17 10.00 Fair CLR 68 28.4 23% 29.68 0.0
03 18:35 NW 15 G 21 10.00 Fair CLR 69.8 30.2 23% 29.68 0.0
03 18:15 NW 20 G 25 10.00 Fair CLR 69.8 30.2 23% 29.68 0.0
03 17:55 NW 17 G 24 10.00 Fair CLR 69.8 32 25% 29.68 0.0
03 17:35 NW 20 10.00 Fair CLR 69.8 32 25% 29.67 0.0
03 17:15 NW 18 G 24 9.00 Fair CLR 69.8 32 25% 29.67 0.0
03 16:55 NW 16 G 25 10.00 Fair CLR 71.6 33.8 25% 29.67 0.0
03 16:35 NW 17 G 26 9.00 Fair CLR 71.6 32 23% 29.67 0.0
03 16:15 NW 21 G 26 10.00 Fair and Breezy CLR 69.8 32 25% 29.68 0.0
03 15:55 NW 18 10.00 Fair CLR 71.6 32 23% 29.68 0.0
03 15:35 NW 12 G 21 10.00 Fair CLR 69.8 32 25% 29.68 0.0
03 15:15 NW 17 10.00 Fair CLR 69.8 33.8 27% 29.69 0.0
03 14:55 N 16 G 23 10.00 Fair CLR 69.8 32 25% 29.69 0.0
03 14:35 NW 16 G 23 10.00 Fair CLR 69.8 35.6 29% 29.69 0.0
03 14:15 NW 20 G 25 10.00 Fair CLR 69.8 35.6 29% 29.69 0.0
03 13:55 NW 18 10.00 Fair CLR 69.8 35.6 29% 29.69 0.0
03 13:35 NW 18 10.00 Fair CLR 68 35.6 30% 29.7 0.0
03 13:15 NW 18 10.00 Fair CLR 68 39.2 35% 29.7 0.0
03 12:55 N 17 10.00 Fair CLR 68 39.2 35% 29.7 0.0
03 12:35 NW 20 10.00 NULL NULL 68 39.2 35% 29.7 0.0
03 12:15 NW 17 10.00 NULL NULL 66.2 37.4 35% 29.7 0.0
03 11:55 NW 12 G 18 10.00 Fair CLR 66.2 37.4 35% 29.7 0.0
03 11:35 NW 10 G 24 10.00 Fair CLR 64.4 37.4 37% 29.7 0.0
03 11:15 W 7 G 17 10.00 Fair CLR 62.6 37.4 39% 29.7 0.0
03 10:55 W 9 G 16 10.00 NULL NULL 62.6 37.4 39% 29.7 0.0
03 10:35 W 10 10.00 Fair CLR 60.8 37.4 42% 29.71 0.0
03 10:15 SW 12 10.00 Fair CLR 59 35.6 42% 29.71 0.0
03 09:55 SW 10 G 20 10.00 Fair CLR 59 35.6 42% 29.71 0.0
03 09:35 SW 14 G 21 10.00 Fair CLR 57.2 35.6 44% 29.71 0.0
03 09:15 SW 14 G 22 10.00 Fair CLR 57.2 33.8 41% 29.72 0.0
03 08:55 SW 15 10.00 Fair CLR 55.4 33.8 44% 29.72 0.0
03 08:35 SW 15 G 22 10.00 Fair CLR 55.4 33.8 44% 29.72 0.0
03 08:15 SW 16 G 29 10.00 Fair CLR 55.4 32 41% 29.73 0.0
03 07:55 SW 12 G 18 10.00 A Few Clouds FEW095 53.6 32 44% 29.73 0.0
03 07:35 SW 13 G 23 10.00 Partly Cloudy SCT095 53.6 32 44% 29.73 0.0
03 07:15 S 12 G 24 10.00 A Few Clouds FEW095 53.6 32 44% 29.73 0.0
03 06:55 SW 13 G 22 10.00 Fair CLR 51.8 32 47% 29.72 0.0
03 06:35 S 10 10.00 A Few Clouds FEW100 51.8 33.8 50% 29.73 0.0
03 06:15 S 13 G 18 10.00 Fair CLR 51.8 33.8 50% 29.73 0.0
03 05:55 S 8 G 15 10.00 Partly Cloudy SCT085 51.8 33.8 50% 29.74 0.0
03 05:35 S 10 10.00 Overcast OVC085 51.8 33.8 50% 29.75 0.0
03 05:15 S 12 G 18 10.00 Overcast SCT060 BKN075 OVC085 53.6 35.6 51% 29.74 0.0
03 04:55 S 20 G 26 10.00 Overcast BKN060 BKN075 OVC085 53.6 33.8 47% 29.75 0.0
03 04:35 S 15 G 23 10.00 Overcast FEW070 SCT080 OVC090 53.6 33.8 47% 29.76 0.0
03 04:15 S 13 G 18 10.00 Partly Cloudy SCT095 SCT110 53.6 32 44% 29.78 0.0
03 03:55 SW 14 G 23 10.00 Partly Cloudy FEW075 FEW085 SCT110 53.6 30.2 41% 29.79 0.0
03 03:35 SW 12 G 22 10.00 Mostly Cloudy FEW049 SCT060 BKN070 55.4 32 41% 29.8 0.0
03 03:15 SW 14 G 21 10.00 Overcast FEW042 BKN055 OVC070 53.6 33.8 47% 29.82 0.0
03 02:55 SW 12 G 18 10.00 Overcast FEW060 BKN075 OVC120 53.6 32 44% 29.81 0.0
03 02:35 SW 14 G 23 10.00 Mostly Cloudy FEW075 BKN095 BKN120 53.6 30.2 41% 29.8 0.0
03 02:15 SW 16 G 23 10.00 Overcast BKN075 OVC095 53.6 30.2 41% 29.82 0.0
03 01:55 SW 10 G 17 10.00 Mostly Cloudy BKN075 BKN095 BKN120 51.8 30.2 44% 29.83 0.0
03 01:35 SW 12 G 18 10.00 Mostly Cloudy BKN110 51.8 30.2 44% 29.83 0.0
03 01:15 SW 13 G 22 10.00 Mostly Cloudy FEW080 SCT090 BKN110 53.6 28.4 38% 29.84 0.0
03 00:55 SW 13 10.00 Overcast SCT070 OVC085 53.6 30.2 41% 29.84 0.0
03 00:35 SW 13 10.00 Overcast BKN070 OVC090 51.8 28.4 41% 29.85 0.0
03 00:15 SW 13 10.00 Overcast SCT070 OVC090 53.6 30.2 41% 29.86 0.0
02 23:55 SW 12 10.00 Overcast OVC090 53.6 30.2 41% 29.86 0.0
02 23:35 SW 12 10.00 Overcast OVC100 53.6 30.2 41% 29.86 0.0
02 23:15 SW 9 10.00 Overcast OVC100 53.6 30.2 41% 29.86 0.0
02 22:55 SW 10 G 16 10.00 Mostly Cloudy BKN110 53.6 30.2 41% 29.87 0.0
02 22:15 SW 7 10.00 Overcast OVC110 53.6 30.2 41% 29.88 0.0
02 21:55 SW 7 10.00 Mostly Cloudy BKN110 55.4 30.2 38% 29.89 0.0
02 21:35 SW 6 10.00 A Few Clouds FEW090 FEW120 55.4 30.2 38% 29.9 0.0
02 21:15 SW 6 10.00 Partly Cloudy FEW085 SCT110 55.4 30.2 38% 29.9 0.0
02 20:55 SW 7 9.00 Partly Cloudy FEW075 FEW090 SCT110 55.4 30.2 38% 29.9 0.0
02 20:35 SW 7 10.00 A Few Clouds FEW085 FEW120 57.2 30.2 36% 29.9 0.0
02 20:15 SW 7 10.00 Fair CLR 57.2 30.2 36% 29.9 0.0
02 19:55 SW 7 10.00 Fair CLR 59 30.2 34% 29.9 0.0
02 19:35 W 8 G 15 10.00 A Few Clouds FEW100 59 28.4 31% 29.9 0.0
02 19:15 W 12 10.00 A Few Clouds FEW100 60.8 28.4 29% 29.91 0.0
02 18:55 W 12 10.00 Fair CLR 60.8 28.4 29% 29.91 0.0
02 18:35 W 13 10.00 A Few Clouds FEW100 60.8 28.4 29% 29.92 0.0
02 18:15 W 15 10.00 A Few Clouds FEW095 62.6 28.4 27% 29.92 0.0
02 17:55 W 16 10.00 Fair CLR 62.6 28.4 27% 29.92 0.0
02 17:35 W 14 10.00 A Few Clouds FEW095 62.6 28.4 27% 29.93 0.0
02 17:15 W 16 10.00 Partly Cloudy SCT095 62.6 28.4 27% 29.93 0.0
02 16:55 W 14 G 21 10.00 Fair CLR 62.6 28.4 27% 29.94 0.0
02 16:35 W 14 G 22 10.00 Fair CLR 60.8 26.6 27% 29.95 0.0
02 16:15 NW 17 10.00 Fair CLR 60.8 26.6 27% 29.96 0.0
02 15:55 W 13 G 21 10.00 NULL NULL 60.8 26.6 27% 29.96 0.0
02 15:35 W 13 G 18 10.00 NULL NULL 59 26.6 29% 29.97 0.0
02 15:15 W 12 10.00 A Few Clouds FEW080 59 24.8 27% 29.99 0.0
02 14:55 W 15 10.00 A Few Clouds FEW080 59 24.8 27% 29.99 0.0
02 14:35 W 16 G 23 10.00 Fair CLR 59 24.8 27% 30 0.0
02 14:15 W 9 G 22 10.00 Fair CLR 59 24.8 27% 30.01 0.0
02 13:55 W 16 10.00 Fair CLR 57.2 26.6 31% 30.02 0.0
02 13:35 W 16 10.00 Fair CLR 57.2 26.6 31% 30.03 0.0
02 13:15 W 15 10.00 A Few Clouds FEW070 57.2 24.8 29% 30.04 0.0
02 12:55 NW 12 G 25 10.00 A Few Clouds FEW070 55.4 24.8 31% 30.04 0.0
02 12:35 W 14 G 21 10.00 A Few Clouds FEW070 55.4 24.8 31% 30.05 0.0
02 12:15 NW 16 G 23 10.00 A Few Clouds FEW070 55.4 24.8 31% 30.06 0.0
02 11:55 W 15 10.00 Partly Cloudy SCT070 55.4 24.8 31% 30.06 0.0
02 11:35 W 10 G 21 10.00 Partly Cloudy SCT070 55.4 24.8 31% 30.07 0.0
02 11:15 NW 16 G 24 10.00 NULL NULL 53.6 24.8 33% 30.07 0.0
02 10:55 W 13 G 20 10.00 NULL NULL 53.6 23 30% 30.08 0.0
02 10:35 W 20 10.00 Fair CLR 53.6 23 30% 30.08 0.0
02 10:15 W 13 G 21 10.00 Fair CLR 53.6 24.8 33% 30.08 0.0
02 09:55 W 16 G 25 10.00 Fair CLR 51.8 26.6 38% 30.08 0.0
02 09:35 W 20 10.00 Fair CLR 51.8 26.6 38% 30.09 0.0
02 09:15 W 14 10.00 Fair CLR 50 26.6 40% 45 30.09 0.0
02 08:55 W 13 10.00 Fair CLR 50 26.6 40% 46 30.09 0.0
02 08:35 W 13 10.00 Fair CLR 46.4 26.6 46% 41 30.09 0.0
02 08:15 W 12 10.00 Fair CLR 44.6 28.4 53% 39 30.1 0.0
02 07:55 W 10 10.00 Fair CLR 42.8 26.6 53% 38 30.1 0.0
02 07:35 W 9 10.00 Fair CLR 41 26.6 57% 36 30.09 0.0
02 07:15 W 9 10.00 Fair CLR 41 24.8 53% 36 30.09 0.0
02 06:55 W 8 10.00 Fair CLR 39.2 24.8 56% 34 30.09 0.0
02 06:35 W 9 10.00 Fair CLR 37.4 23 56% 31 30.09 0.0
02 06:15 W 10 10.00 Fair CLR 37.4 23 56% 31 30.08 0.0
02 05:55 W 9 10.00 Fair CLR 37.4 23 56% 31 30.08 0.0
02 05:35 W 8 10.00 Fair CLR 37.4 21.2 52% 32 30.08 0.0
02 05:15 W 7 10.00 Fair CLR 37.4 21.2 52% 33 30.08 0.0
02 04:55 W 7 10.00 Fair CLR 37.4 21.2 52% 33 30.09 0.0
02 04:35 W 8 10.00 Fair CLR 37.4 21.2 52% 32 30.09 0.0
02 04:15 SW 10 10.00 A Few Clouds FEW070 37.4 23 56% 31 30.08 0.0
02 03:55 W 6 10.00 A Few Clouds FEW070 33.8 23 65% 29 30.08 0.0
02 03:35 SW 6 10.00 Fair CLR 35.6 23 60% 31 30.08 0.0
02 03:15 W 9 10.00 Fair CLR 37.4 23 56% 31 30.08 0.0
02 02:55 W 9 10.00 Fair CLR 37.4 23 56% 31 30.08 0.0
02 02:35 W 9 10.00 Fair CLR 37.4 23 56% 31 30.09 0.0
02 02:15 W 6 10.00 Fair CLR 37.4 21.2 52% 33 30.09 0.0
02 01:55 W 6 10.00 Fair CLR 35.6 23 60% 31 30.09 0.0
02 01:35 SW 5 10.00 Fair CLR 35.6 23 60% 32 30.09 0.0
02 01:15 W 6 10.00 NULL NULL 37.4 21.2 52% 33 30.09 0.0
02 00:55 W 6 10.00 NULL NULL 37.4 21.2 52% 33 30.09 0.0
02 00:35 W 5 10.00 NULL NULL 37.4 21.2 52% 34 30.09 0.0
02 00:15 W 3 10.00 Fair CLR 39.2 21.2 48% 30.09 0.0
01 23:55 Calm 10.00 Fair CLR 42.8 19.4 39% 30.09 0.0
01 23:35 NW 3 10.00 Fair CLR 41 21.2 45% 30.09 0.0
01 23:15 Calm 10.00 Fair CLR 41 21.2 45% 30.08 0.0
01 22:55 Calm 10.00 Fair CLR 39.2 21.2 48% 30.09 0.0
01 22:35 Calm 10.00 Fair CLR 42.8 21.2 42% 30.08 0.0
01 22:15 Calm 10.00 Mostly Cloudy BKN070 BKN075 41 21.2 45% 30.08 0.0
01 21:55 Calm 10.00 Overcast OVC070 41 21.2 45% 30.09 0.0
01 21:35 N 3 10.00 Mostly Cloudy BKN070 42.8 21.2 42% 30.08 0.0
01 21:15 N 5 10.00 Mostly Cloudy BKN065 BKN075 42.8 21.2 42% 41 30.08 0.0
01 20:55 N 5 10.00 Partly Cloudy SCT070 44.6 21.2 39% 43 30.07 0.0
01 20:35 N 5 10.00 A Few Clouds FEW070 44.6 21.2 39% 43 30.07 0.0
01 20:15 N 8 10.00 Partly Cloudy SCT075 46.4 21.2 37% 43 30.06 0.0
01 19:55 N 7 10.00 Overcast OVC075 46.4 21.2 37% 43 30.06 0.0
01 19:35 N 8 10.00 Mostly Cloudy BKN075 48.2 21.2 34% 45 30.05 0.0
01 19:15 N 7 10.00 A Few Clouds FEW075 48.2 21.2 34% 46 30.05 0.0
01 18:55 N 10 10.00 A Few Clouds FEW070 48.2 19.4 32% 44 30.05 0.0
Date Time (cdt) Wind (mph) Vis. (mi.) Weather Sky Cond. Air Dwpt Max. Min. Relative Humidity Wind Chill (°F) Heat Index (°F) altimeter (in) sea level (mb) 1 hr 3 hr 6 hr
6 hour
Temperature (ºF) Pressure Precipitation (in)